sensor_id;sensor_type;location;lat;lon;timestamp;P1;durP1;ratioP1;P2;durP2;ratioP2
8885;SDS011;4479;51.162;13.906;2023-06-22T00:09:07;3.90;;;3.60;;
8885;SDS011;4479;51.162;13.906;2023-06-22T00:19:11;3.87;;;3.57;;
8885;SDS011;4479;51.162;13.906;2023-06-22T00:29:14;4.13;;;3.77;;
8885;SDS011;4479;51.162;13.906;2023-06-22T00:39:18;4.47;;;3.77;;
8885;SDS011;4479;51.162;13.906;2023-06-22T00:49:20;4.13;;;3.53;;
8885;SDS011;4479;51.162;13.906;2023-06-22T00:59:24;4.50;;;4.03;;
8885;SDS011;4479;51.162;13.906;2023-06-22T01:09:29;6.33;;;4.23;;
8885;SDS011;4479;51.162;13.906;2023-06-22T01:19:43;4.57;;;3.93;;
8885;SDS011;4479;51.162;13.906;2023-06-22T01:29:51;5.57;;;4.07;;
8885;SDS011;4479;51.162;13.906;2023-06-22T01:40:00;4.73;;;3.83;;
8885;SDS011;4479;51.162;13.906;2023-06-22T01:50:06;4.83;;;4.40;;
8885;SDS011;4479;51.162;13.906;2023-06-22T02:00:09;5.23;;;4.70;;
8885;SDS011;4479;51.162;13.906;2023-06-22T02:10:17;4.87;;;4.37;;
8885;SDS011;4479;51.162;13.906;2023-06-22T02:20:21;5.80;;;4.83;;
8885;SDS011;4479;51.162;13.906;2023-06-22T02:30:26;4.80;;;4.40;;
8885;SDS011;4479;51.162;13.906;2023-06-22T02:40:28;5.27;;;4.70;;
8885;SDS011;4479;51.162;13.906;2023-06-22T02:50:32;5.13;;;4.73;;
8885;SDS011;4479;51.162;13.906;2023-06-22T03:00:34;4.83;;;4.43;;
8885;SDS011;4479;51.162;13.906;2023-06-22T03:10:40;5.33;;;4.43;;
8885;SDS011;4479;51.162;13.906;2023-06-22T03:20:43;5.87;;;4.60;;
8885;SDS011;4479;51.162;13.906;2023-06-22T03:30:47;8.73;;;4.53;;
8885;SDS011;4479;51.162;13.906;2023-06-22T03:40:51;6.87;;;4.60;;
8885;SDS011;4479;51.162;13.906;2023-06-22T03:50:56;5.90;;;4.37;;
8885;SDS011;4479;51.162;13.906;2023-06-22T04:00:59;6.30;;;4.57;;
8885;SDS011;4479;51.162;13.906;2023-06-22T04:11:03;6.20;;;4.67;;
8885;SDS011;4479;51.162;13.906;2023-06-22T04:21:06;6.63;;;5.13;;
8885;SDS011;4479;51.162;13.906;2023-06-22T04:31:09;6.27;;;4.93;;
8885;SDS011;4479;51.162;13.906;2023-06-22T04:41:12;6.33;;;5.43;;
8885;SDS011;4479;51.162;13.906;2023-06-22T04:51:25;7.00;;;5.33;;
8885;SDS011;4479;51.162;13.906;2023-06-22T05:01:30;6.80;;;6.00;;
8885;SDS011;4479;51.162;13.906;2023-06-22T05:11:34;6.40;;;5.90;;
8885;SDS011;4479;51.162;13.906;2023-06-22T05:21:36;7.47;;;5.87;;
8885;SDS011;4479;51.162;13.906;2023-06-22T05:31:39;6.10;;;5.60;;
8885;SDS011;4479;51.162;13.906;2023-06-22T05:41:41;5.80;;;5.30;;
8885;SDS011;4479;51.162;13.906;2023-06-22T05:51:45;6.37;;;5.87;;
8885;SDS011;4479;51.162;13.906;2023-06-22T06:01:47;7.07;;;6.47;;
8885;SDS011;4479;51.162;13.906;2023-06-22T06:11:52;6.97;;;6.43;;
8885;SDS011;4479;51.162;13.906;2023-06-22T06:21:54;7.10;;;6.53;;
8885;SDS011;4479;51.162;13.906;2023-06-22T06:31:58;7.83;;;7.23;;
8885;SDS011;4479;51.162;13.906;2023-06-22T06:41:59;8.50;;;7.53;;
8885;SDS011;4479;51.162;13.906;2023-06-22T06:52:05;9.17;;;8.30;;
8885;SDS011;4479;51.162;13.906;2023-06-22T07:02:08;8.13;;;7.43;;
8885;SDS011;4479;51.162;13.906;2023-06-22T07:12:11;8.83;;;7.93;;
8885;SDS011;4479;51.162;13.906;2023-06-22T07:22:13;7.60;;;7.00;;
8885;SDS011;4479;51.162;13.906;2023-06-22T07:32:17;7.77;;;7.13;;
8885;SDS011;4479;51.162;13.906;2023-06-22T07:42:19;7.83;;;7.03;;
8885;SDS011;4479;51.162;13.906;2023-06-22T07:52:23;8.43;;;7.77;;
8885;SDS011;4479;51.162;13.906;2023-06-22T08:02:25;8.47;;;7.77;;
8885;SDS011;4479;51.162;13.906;2023-06-22T08:12:29;9.03;;;8.33;;
8885;SDS011;4479;51.162;13.906;2023-06-22T08:22:31;8.27;;;7.57;;
8885;SDS011;4479;51.162;13.906;2023-06-22T08:32:35;8.87;;;8.17;;
8885;SDS011;4479;51.162;13.906;2023-06-22T08:42:37;6.77;;;6.20;;
8885;SDS011;4479;51.162;13.906;2023-06-22T08:52:42;7.40;;;6.70;;
8885;SDS011;4479;51.162;13.906;2023-06-22T09:02:45;7.33;;;6.73;;
8885;SDS011;4479;51.162;13.906;2023-06-22T09:12:49;8.00;;;7.40;;
8885;SDS011;4479;51.162;13.906;2023-06-22T09:22:51;8.57;;;7.70;;
8885;SDS011;4479;51.162;13.906;2023-06-22T09:32:55;8.63;;;7.87;;
8885;SDS011;4479;51.162;13.906;2023-06-22T09:42:57;8.40;;;7.70;;
8885;SDS011;4479;51.162;13.906;2023-06-22T09:53:01;7.60;;;6.90;;
8885;SDS011;4479;51.162;13.906;2023-06-22T10:03:03;7.43;;;6.83;;
8885;SDS011;4479;51.162;13.906;2023-06-22T10:13:08;6.87;;;6.27;;
8885;SDS011;4479;51.162;13.906;2023-06-22T10:23:11;7.27;;;6.67;;
8885;SDS011;4479;51.162;13.906;2023-06-22T10:33:15;6.30;;;5.80;;
8885;SDS011;4479;51.162;13.906;2023-06-22T10:43:17;6.40;;;5.90;;
8885;SDS011;4479;51.162;13.906;2023-06-22T10:53:21;6.63;;;6.13;;
8885;SDS011;4479;51.162;13.906;2023-06-22T11:03:23;6.63;;;6.13;;
8885;SDS011;4479;51.162;13.906;2023-06-22T11:13:27;6.87;;;6.33;;
8885;SDS011;4479;51.162;13.906;2023-06-22T11:23:29;6.97;;;6.47;;
8885;SDS011;4479;51.162;13.906;2023-06-22T11:33:32;6.80;;;6.23;;
8885;SDS011;4479;51.162;13.906;2023-06-22T11:43:35;7.40;;;6.80;;
8885;SDS011;4479;51.162;13.906;2023-06-22T11:53:39;6.27;;;5.77;;
8885;SDS011;4479;51.162;13.906;2023-06-22T12:03:41;6.43;;;5.93;;
8885;SDS011;4479;51.162;13.906;2023-06-22T12:13:45;7.67;;;6.93;;
8885;SDS011;4479;51.162;13.906;2023-06-22T12:23:47;7.43;;;6.53;;
8885;SDS011;4479;51.162;13.906;2023-06-22T12:33:52;7.87;;;7.17;;
8885;SDS011;4479;51.162;13.906;2023-06-22T12:43:54;7.83;;;7.23;;
8885;SDS011;4479;51.162;13.906;2023-06-22T12:53:58;7.60;;;6.00;;
8885;SDS011;4479;51.162;13.906;2023-06-22T13:04:00;6.57;;;6.00;;
8885;SDS011;4479;51.162;13.906;2023-06-22T13:14:03;6.83;;;6.23;;
8885;SDS011;4479;51.162;13.906;2023-06-22T13:24:06;7.20;;;6.60;;
8885;SDS011;4479;51.162;13.906;2023-06-22T13:34:10;7.40;;;6.70;;
8885;SDS011;4479;51.162;13.906;2023-06-22T13:44:12;7.33;;;6.73;;
8885;SDS011;4479;51.162;13.906;2023-06-22T13:54:18;7.07;;;6.57;;
8885;SDS011;4479;51.162;13.906;2023-06-22T14:04:43;7.83;;;7.13;;
8885;SDS011;4479;51.162;13.906;2023-06-22T14:14:46;6.23;;;5.63;;
8885;SDS011;4479;51.162;13.906;2023-06-22T14:24:48;7.10;;;6.60;;
8885;SDS011;4479;51.162;13.906;2023-06-22T14:34:52;6.40;;;5.90;;
8885;SDS011;4479;51.162;13.906;2023-06-22T14:44:55;7.23;;;6.60;;
8885;SDS011;4479;51.162;13.906;2023-06-22T14:54:58;7.37;;;6.77;;
8885;SDS011;4479;51.162;13.906;2023-06-22T15:05:01;7.07;;;6.47;;
8885;SDS011;4479;51.162;13.906;2023-06-22T15:15:05;8.10;;;7.33;;
8885;SDS011;4479;51.162;13.906;2023-06-22T15:25:08;8.57;;;7.87;;
8885;SDS011;4479;51.162;13.906;2023-06-22T15:35:12;7.20;;;6.60;;
8885;SDS011;4479;51.162;13.906;2023-06-22T15:45:16;8.40;;;7.70;;
8885;SDS011;4479;51.162;13.906;2023-06-22T15:55:20;8.53;;;7.73;;
8885;SDS011;4479;51.162;13.906;2023-06-22T16:05:23;8.27;;;7.57;;
8885;SDS011;4479;51.162;13.906;2023-06-22T16:15:26;8.67;;;7.97;;
8885;SDS011;4479;51.162;13.906;2023-06-22T16:25:29;9.93;;;9.13;;
8885;SDS011;4479;51.162;13.906;2023-06-22T16:35:32;9.97;;;9.07;;
8885;SDS011;4479;51.162;13.906;2023-06-22T16:45:39;9.10;;;8.33;;
8885;SDS011;4479;51.162;13.906;2023-06-22T16:55:43;9.17;;;8.37;;
8885;SDS011;4479;51.162;13.906;2023-06-22T17:05:50;8.87;;;8.13;;
8885;SDS011;4479;51.162;13.906;2023-06-22T17:15:58;9.53;;;8.73;;
8885;SDS011;4479;51.162;13.906;2023-06-22T17:26:02;9.70;;;8.60;;
8885;SDS011;4479;51.162;13.906;2023-06-22T17:36:08;9.17;;;8.37;;
8885;SDS011;4479;51.162;13.906;2023-06-22T17:46:13;8.83;;;8.07;;
8885;SDS011;4479;51.162;13.906;2023-06-22T17:56:18;9.10;;;8.40;;
8885;SDS011;4479;51.162;13.906;2023-06-22T18:06:21;9.23;;;8.47;;
8885;SDS011;4479;51.162;13.906;2023-06-22T18:16:27;10.70;;;9.10;;
8885;SDS011;4479;51.162;13.906;2023-06-22T18:26:31;10.07;;;9.17;;
8885;SDS011;4479;51.162;13.906;2023-06-22T18:36:37;9.50;;;8.70;;
8885;SDS011;4479;51.162;13.906;2023-06-22T18:46:42;9.40;;;8.60;;
8885;SDS011;4479;51.162;13.906;2023-06-22T18:56:52;8.90;;;8.10;;
8885;SDS011;4479;51.162;13.906;2023-06-22T19:06:55;9.13;;;8.33;;
8885;SDS011;4479;51.162;13.906;2023-06-22T19:16:59;9.27;;;8.33;;
8885;SDS011;4479;51.162;13.906;2023-06-22T19:27:02;8.80;;;7.90;;
8885;SDS011;4479;51.162;13.906;2023-06-22T19:37:14;9.57;;;8.23;;
8885;SDS011;4479;51.162;13.906;2023-06-22T19:47:19;9.10;;;8.30;;
8885;SDS011;4479;51.162;13.906;2023-06-22T19:57:22;8.67;;;7.80;;
8885;SDS011;4479;51.162;13.906;2023-06-22T20:07:33;10.80;;;8.70;;
8885;SDS011;4479;51.162;13.906;2023-06-22T20:17:41;9.73;;;8.93;;
8885;SDS011;4479;51.162;13.906;2023-06-22T20:27:47;8.93;;;8.13;;
8885;SDS011;4479;51.162;13.906;2023-06-22T20:38:00;10.30;;;9.40;;
8885;SDS011;4479;51.162;13.906;2023-06-22T20:48:02;9.20;;;8.37;;
8885;SDS011;4479;51.162;13.906;2023-06-22T20:58:07;9.00;;;8.03;;
8885;SDS011;4479;51.162;13.906;2023-06-22T21:08:10;8.57;;;7.77;;
8885;SDS011;4479;51.162;13.906;2023-06-22T21:18:13;7.97;;;7.27;;
8885;SDS011;4479;51.162;13.906;2023-06-22T21:28:16;7.37;;;6.77;;
8885;SDS011;4479;51.162;13.906;2023-06-22T21:38:20;8.40;;;7.67;;
8885;SDS011;4479;51.162;13.906;2023-06-22T21:48:22;7.27;;;6.67;;
8885;SDS011;4479;51.162;13.906;2023-06-22T21:58:25;7.60;;;6.90;;
8885;SDS011;4479;51.162;13.906;2023-06-22T22:08:27;8.70;;;7.57;;
8885;SDS011;4479;51.162;13.906;2023-06-22T22:18:31;9.30;;;8.40;;
8885;SDS011;4479;51.162;13.906;2023-06-22T22:28:34;9.30;;;8.40;;
8885;SDS011;4479;51.162;13.906;2023-06-22T22:38:37;11.13;;;9.23;;
8885;SDS011;4479;51.162;13.906;2023-06-22T22:48:42;12.03;;;10.93;;
8885;SDS011;4479;51.162;13.906;2023-06-22T22:58:46;10.10;;;8.97;;
8885;SDS011;4479;51.162;13.906;2023-06-22T23:08:48;7.43;;;5.10;;
8885;SDS011;4479;51.162;13.906;2023-06-22T23:18:57;6.17;;;3.60;;
8885;SDS011;4479;51.162;13.906;2023-06-22T23:29:00;0.53;;;0.53;;
8885;SDS011;4479;51.162;13.906;2023-06-22T23:39:07;0.10;;;0.10;;
